Time;durP1;ratioP1;P1;durP2;ratioP2;P2;SDS_P1;SDS_P2;PMS_P1;PMS_P2;Temp;Humidity;BMP_temperature;BMP_pressure;BME280_temperature;BME280_humidity;BME280_pressure;Samples;Min_cycle;Max_cycle;Signal;HPM_P1;HPM_P2
2023/08/17 00:01:03;;;;;;;;;;;29.40;58.50;;;;;;5066573;28;42961;-79
2023/08/17 00:03:29;;;;;;;;;;;29.30;58.30;;;;;;5064676;28;44437;-79
2023/08/17 00:05:54;;;;;;;;;;;29.40;58.40;;;;;;5066636;28;42860;-79
2023/08/17 00:08:20;;;;;;;;;;;29.30;58.30;;;;;;5055922;28;43898;-79
2023/08/17 00:10:46;;;;;;;;;;;29.30;58.40;;;;;;5035634;28;43038;-79
2023/08/17 00:13:12;;;;;;;;;;;29.40;58.30;;;;;;5064023;28;43582;-77
2023/08/17 00:15:38;;;;;;;;;;;29.40;58.10;;;;;;5063134;28;43071;-79
2023/08/17 00:18:03;;;;;;;;;;;29.40;58.40;;;;;;5065404;28;43399;-79
2023/08/17 00:20:29;;;;;;;;;;;29.30;58.20;;;;;;5065815;28;43219;-80
2023/08/17 00:22:54;;;;;;;;;;;29.50;58.60;;;;;;5066095;28;43022;-79
2023/08/17 00:25:20;;;;;;;;;;;29.40;58.20;;;;;;5065647;28;42928;-79
2023/08/17 00:27:45;;;;;;;;;;;29.20;58.10;;;;;;5065678;28;43481;-78
2023/08/17 00:30:11;;;;;;;;;;;29.20;58.00;;;;;;5065343;28;42961;-79
2023/08/17 00:32:36;;;;;;;;;;;29.40;58.00;;;;;;5059810;28;43431;-81
2023/08/17 00:35:02;;;;;;;;;;;29.20;58.00;;;;;;5065625;28;42915;-79
2023/08/17 00:37:28;;;;;;;;;;;29.40;57.90;;;;;;5052490;28;43908;-80
2023/08/17 00:39:53;;;;;;;;;;;29.20;58.00;;;;;;5065308;28;43795;-78
2023/08/17 00:42:19;;;;;;;;;;;29.30;58.00;;;;;;5065728;28;44130;-79
2023/08/17 00:44:44;;;;;;;;;;;29.30;57.90;;;;;;5066008;28;43166;-80
2023/08/17 00:47:10;;;;;;;;;;;29.20;58.00;;;;;;5065602;28;42946;-79
2023/08/17 00:49:35;;;;;;;;;;;29.20;58.00;;;;;;5065731;28;43258;-78
2023/08/17 00:52:02;;;;;;;;;;;29.40;57.70;;;;;;5046973;28;43851;-79
2023/08/17 00:54:29;;;;;;;;;;;29.20;58.10;;;;;;5065784;28;42973;-79
2023/08/17 00:56:55;;;;;;;;;;;29.30;58.40;;;;;;5063942;28;43016;-79
2023/08/17 00:59:21;;;;;;;;;;;29.20;58.30;;;;;;5063574;28;43086;-78
2023/08/17 01:01:47;;;;;;;;;;;29.20;58.30;;;;;;5062801;28;43023;-80
2023/08/17 01:04:14;;;;;;;;;;;29.20;58.40;;;;;;5056257;28;59701;-79
2023/08/17 01:06:40;;;;;;;;;;;29.30;58.40;;;;;;5065618;28;42950;-77
2023/08/17 01:09:06;;;;;;;;;;;29.30;58.70;;;;;;5043121;28;43004;-78
2023/08/17 01:11:37;;;;;;;;;;;29.00;60.00;;;;;;5059005;28;42987;-79
2023/08/17 01:14:11;;;;;;;;;;;29.20;59.70;;;;;;5063726;28;42956;-79
2023/08/17 01:16:44;;;;;;;;;;;29.10;58.60;;;;;;5059142;28;43179;-79
2023/08/17 01:19:12;;;;;;;;;;;29.10;59.50;;;;;;5063949;28;43090;-79
2023/08/17 01:21:42;;;;;;;;;;;29.30;62.50;;;;;;5063336;28;43851;-79
2023/08/17 01:24:08;;;;;;;;;;;29.10;62.90;;;;;;5062794;28;43102;-81
2023/08/17 01:26:34;;;;;;;;;;;29.20;61.50;;;;;;5063815;28;42874;-78
2023/08/17 01:28:59;;;;;;;;;;;29.10;62.00;;;;;;5060688;28;43265;-78
2023/08/17 01:31:31;;;;;;;;;;;29.20;62.80;;;;;;5063174;28;43020;-79
2023/08/17 01:34:00;;;;;;;;;;;29.20;60.00;;;;;;5053301;28;43807;-79
2023/08/17 01:36:29;;;;;;;;;;;29.00;62.20;;;;;;5065187;28;42873;-78
2023/08/17 01:38:56;;;;;;;;;;;29.00;60.30;;;;;;5046816;28;43112;-78
2023/08/17 01:41:22;;;;;;;;;;;29.00;62.70;;;;;;5062193;28;43007;-79
2023/08/17 01:43:48;;;;;;;;;;;29.00;61.10;;;;;;5063840;28;42824;-79
2023/08/17 01:46:17;;;;;;;;;;;28.90;63.80;;;;;;5046267;28;43846;-78
2023/08/17 01:48:55;;;;;;;;;;;29.10;61.80;;;;;;5121647;27;43046;-81
2023/08/17 01:51:20;;;;;;;;;;;28.90;62.50;;;;;;5105835;27;44574;-80
2023/08/17 01:53:46;;;;;;;;;;;29.10;63.60;;;;;;5108583;27;43524;-80
2023/08/17 01:56:11;;;;;;;;;;;28.90;63.60;;;;;;5105733;27;43450;-80
2023/08/17 01:58:37;;;;;;;;;;;28.80;61.60;;;;;;5142567;27;43035;-81
2023/08/17 02:01:03;;;;;;;;;;;29.00;61.10;;;;;;5106388;27;43710;-79
2023/08/17 02:03:28;;;;;;;;;;;30.20;61.70;;;;;;5109526;27;43061;-80
2023/08/17 02:05:57;;;;;;;;;;;29.10;60.70;;;;;;5105427;27;43511;-79
2023/08/17 02:08:23;;;;;;;;;;;29.00;58.70;;;;;;5112470;27;42846;-79
2023/08/17 02:10:48;;;;;;;;;;;29.00;60.90;;;;;;5117335;27;43277;-79
2023/08/17 02:13:14;;;;;;;;;;;29.40;61.30;;;;;;5117621;27;43035;-80
2023/08/17 02:15:40;;;;;;;;;;;28.90;61.00;;;;;;5111923;27;43070;-80
2023/08/17 02:18:05;;;;;;;;;;;28.80;62.10;;;;;;5119888;27;42920;-80
2023/08/17 02:20:31;;;;;;;;;;;28.90;60.60;;;;;;5112617;27;43286;-79
2023/08/17 02:22:56;;;;;;;;;;;29.00;60.30;;;;;;5112446;27;43105;-80
2023/08/17 02:25:22;;;;;;;;;;;29.20;60.90;;;;;;5107013;27;42946;-79
2023/08/17 02:27:47;;;;;;;;;;;29.10;60.80;;;;;;5121485;27;43095;-80
2023/08/17 02:30:13;;;;;;;;;;;29.00;63.60;;;;;;5112101;27;42887;-79
2023/08/17 02:32:38;;;;;;;;;;;28.90;60.70;;;;;;5104111;27;43121;-80
2023/08/17 02:35:04;;;;;;;;;;;29.20;62.40;;;;;;5102722;27;42946;-79
2023/08/17 02:37:30;;;;;;;;;;;28.90;63.30;;;;;;5104025;27;42906;-79
2023/08/17 02:39:55;;;;;;;;;;;29.00;61.00;;;;;;5102857;27;43646;-79
2023/08/17 02:42:21;;;;;;;;;;;29.00;60.40;;;;;;5104586;27;42881;-79
2023/08/17 02:44:46;;;;;;;;;;;28.90;60.30;;;;;;5102533;27;42995;-80
2023/08/17 02:47:12;;;;;;;;;;;29.00;60.10;;;;;;5104048;27;42942;-79
2023/08/17 02:49:37;;;;;;;;;;;29.30;60.10;;;;;;5103435;27;43447;-81
2023/08/17 02:52:03;;;;;;;;;;;28.90;61.00;;;;;;5103272;27;43003;-79
2023/08/17 02:54:29;;;;;;;;;;;28.90;60.20;;;;;;5101183;27;43393;-80
2023/08/17 02:56:54;;;;;;;;;;;28.70;60.30;;;;;;5102319;27;42984;-79
2023/08/17 02:59:19;;;;;;;;;;;28.70;60.20;;;;;;5094159;27;42943;-78
2023/08/17 03:01:45;;;;;;;;;;;28.60;60.20;;;;;;5122795;27;43122;-80
2023/08/17 03:04:11;;;;;;;;;;;28.80;60.80;;;;;;5089622;27;43004;-80
2023/08/17 03:06:36;;;;;;;;;;;28.60;60.30;;;;;;5086818;27;42935;-79
2023/08/17 03:09:02;;;;;;;;;;;28.70;59.90;;;;;;5096700;27;43442;-78
2023/08/17 03:11:27;;;;;;;;;;;28.80;59.80;;;;;;5095739;27;43062;-80
2023/08/17 03:13:59;;;;;;;;;;;28.90;59.70;;;;;;5099822;27;42947;-78
2023/08/17 03:16:25;;;;;;;;;;;28.80;59.80;;;;;;5098274;27;43011;-79
2023/08/17 03:18:51;;;;;;;;;;;28.70;59.80;;;;;;5098585;27;43614;-80
2023/08/17 03:21:17;;;;;;;;;;;28.50;59.60;;;;;;5103406;27;42937;-80
2023/08/17 03:23:43;;;;;;;;;;;28.70;59.90;;;;;;5095192;27;43762;-80
2023/08/17 03:26:08;;;;;;;;;;;28.80;59.80;;;;;;5086713;27;43001;-80
2023/08/17 03:28:33;;;;;;;;;;;29.00;59.60;;;;;;5087336;27;43230;-80
2023/08/17 03:30:59;;;;;;;;;;;28.60;59.50;;;;;;5104285;27;44196;-79
2023/08/17 03:33:25;;;;;;;;;;;28.90;59.70;;;;;;5102270;27;43537;-79
2023/08/17 03:35:50;;;;;;;;;;;28.60;59.60;;;;;;5104799;27;42941;-79
2023/08/17 03:38:15;;;;;;;;;;;28.80;59.80;;;;;;5100831;27;43162;-79
2023/08/17 03:40:41;;;;;;;;;;;28.70;60.00;;;;;;5104422;27;42896;-79
2023/08/17 03:43:06;;;;;;;;;;;28.70;59.70;;;;;;5101538;27;43040;-79
2023/08/17 03:45:32;;;;;;;;;;;28.80;59.70;;;;;;5104632;27;42975;-79
2023/08/17 03:47:57;;;;;;;;;;;29.20;59.80;;;;;;5101396;27;44235;-79
2023/08/17 03:50:25;;;;;;;;;;;28.80;59.70;;;;;;5104214;27;42905;-79
2023/08/17 03:52:50;;;;;;;;;;;28.70;59.90;;;;;;5100968;27;43021;-80
2023/08/17 03:55:16;;;;;;;;;;;28.80;59.90;;;;;;5093926;27;43001;-79
2023/08/17 03:57:41;;;;;;;;;;;29.10;60.00;;;;;;5091864;27;43829;-81
2023/08/17 04:00:07;;;;;;;;;;;28.80;59.80;;;;;;5099994;27;42977;-79
2023/08/17 04:02:33;;;;;;;;;;;28.70;59.20;;;;;;5085071;27;43385;-79
2023/08/17 04:04:58;;;;;;;;;;;28.80;59.80;;;;;;5086432;27;42758;-80
2023/08/17 04:07:24;;;;;;;;;;;28.80;59.50;;;;;;5084254;27;43652;-79
2023/08/17 04:09:49;;;;;;;;;;;28.80;59.40;;;;;;5082575;27;42886;-80
2023/08/17 04:12:15;;;;;;;;;;;28.70;59.60;;;;;;5089078;27;42900;-79
2023/08/17 04:14:40;;;;;;;;;;;28.60;59.90;;;;;;5091206;27;42963;-81
2023/08/17 04:17:06;;;;;;;;;;;28.70;60.20;;;;;;5089548;27;42965;-79
2023/08/17 04:19:32;;;;;;;;;;;28.60;60.00;;;;;;5090545;27;43170;-81
2023/08/17 04:21:58;;;;;;;;;;;28.60;60.50;;;;;;5090006;27;43001;-80
2023/08/17 04:24:23;;;;;;;;;;;28.60;60.50;;;;;;5088686;27;42938;-79
2023/08/17 04:26:49;;;;;;;;;;;28.40;60.20;;;;;;5085615;27;42929;-80
2023/08/17 04:29:14;;;;;;;;;;;28.70;60.40;;;;;;5085414;27;43013;-79
2023/08/17 04:31:40;;;;;;;;;;;28.40;60.50;;;;;;5086150;27;42935;-80
2023/08/17 04:34:05;;;;;;;;;;;28.50;60.50;;;;;;5085852;27;42953;-80
2023/08/17 04:36:31;;;;;;;;;;;28.50;60.20;;;;;;5085341;27;44099;-79
2023/08/17 04:38:56;;;;;;;;;;;29.70;61.00;;;;;;5085063;27;43289;-81
2023/08/17 04:41:22;;;;;;;;;;;28.50;60.30;;;;;;5084271;27;43021;-79
2023/08/17 04:43:49;;;;;;;;;;;28.60;60.50;;;;;;5083699;27;43139;-79
2023/08/17 04:46:14;;;;;;;;;;;28.80;60.20;;;;;;5083078;27;43238;-79
2023/08/17 04:48:40;;;;;;;;;;;28.50;60.10;;;;;;5073006;28;43946;-79
2023/08/17 04:51:05;;;;;;;;;;;28.90;60.40;;;;;;5066937;28;43559;-79
2023/08/17 04:53:31;;;;;;;;;;;28.60;60.30;;;;;;5066488;28;42884;-79
2023/08/17 04:55:58;;;;;;;;;;;28.60;60.10;;;;;;5066834;28;42924;-79
2023/08/17 04:58:23;;;;;;;;;;;28.80;60.50;;;;;;5064952;28;42878;-79
2023/08/17 05:00:49;;;;;;;;;;;28.60;61.10;;;;;;5066087;28;42961;-78
2023/08/17 05:03:14;;;;;;;;;;;28.70;62.30;;;;;;5074434;28;43485;-79
2023/08/17 05:05:40;;;;;;;;;;;28.50;60.80;;;;;;5066773;28;43135;-80
2023/08/17 05:08:05;;;;;;;;;;;28.70;60.40;;;;;;5075335;28;42993;-79
2023/08/17 05:10:31;;;;;;;;;;;28.70;61.90;;;;;;5078699;28;43761;-80
2023/08/17 05:12:56;;;;;;;;;;;28.60;61.90;;;;;;5081643;28;43268;-79
2023/08/17 05:15:22;;;;;;;;;;;28.90;61.70;;;;;;5079296;28;42979;-78
2023/08/17 05:17:47;;;;;;;;;;;28.70;61.90;;;;;;5067560;28;43906;-79
2023/08/17 05:20:13;;;;;;;;;;;29.20;62.40;;;;;;5063952;28;43726;-80
2023/08/17 05:22:38;;;;;;;;;;;28.60;61.30;;;;;;5069825;28;43158;-79
2023/08/17 05:25:04;;;;;;;;;;;28.70;61.30;;;;;;5064350;28;43557;-79
2023/08/17 05:27:29;;;;;;;;;;;28.40;59.00;;;;;;5062657;28;43199;-79
2023/08/17 05:29:55;;;;;;;;;;;28.70;59.70;;;;;;5062821;28;43472;-79
2023/08/17 05:32:20;;;;;;;;;;;28.40;59.70;;;;;;5079011;28;43044;-79
2023/08/17 05:34:46;;;;;;;;;;;28.70;59.50;;;;;;5075712;28;43682;-78
2023/08/17 05:37:12;;;;;;;;;;;28.80;59.90;;;;;;5078643;28;42839;-79
2023/08/17 05:39:39;;;;;;;;;;;28.70;59.50;;;;;;5067686;28;43644;-79
2023/08/17 05:42:04;;;;;;;;;;;28.80;59.90;;;;;;5077103;28;43205;-78
2023/08/17 05:44:30;;;;;;;;;;;28.70;59.40;;;;;;5075564;28;43470;-79
2023/08/17 05:46:55;;;;;;;;;;;28.60;59.80;;;;;;5081010;27;42974;-79
2023/08/17 05:49:21;;;;;;;;;;;28.50;59.50;;;;;;5087097;27;44172;-79
2023/08/17 05:51:46;;;;;;;;;;;28.50;59.40;;;;;;5091790;27;43054;-79
2023/08/17 05:54:12;;;;;;;;;;;28.60;59.20;;;;;;5099404;27;43007;-79
2023/08/17 05:56:37;;;;;;;;;;;28.60;59.20;;;;;;5102227;27;43020;-80
2023/08/17 05:59:03;;;;;;;;;;;28.70;59.30;;;;;;5096336;27;44095;-79
2023/08/17 06:01:28;;;;;;;;;;;28.70;59.30;;;;;;5091601;27;42886;-75
2023/08/17 06:03:54;;;;;;;;;;;28.60;59.20;;;;;;5086352;27;43047;-78
2023/08/17 06:06:19;;;;;;;;;;;28.60;59.00;;;;;;5087677;27;42879;-81
2023/08/17 06:08:45;;;;;;;;;;;28.70;59.30;;;;;;5083824;27;42964;-78
2023/08/17 06:11:11;;;;;;;;;;;28.70;59.20;;;;;;5081213;27;43323;-75
2023/08/17 06:13:36;;;;;;;;;;;28.80;59.30;;;;;;5082598;27;44186;-75
2023/08/17 06:16:02;;;;;;;;;;;28.60;59.30;;;;;;5102574;27;43122;-79
2023/08/17 06:18:29;;;;;;;;;;;28.80;59.40;;;;;;5100096;27;43354;-75
2023/08/17 06:20:54;;;;;;;;;;;28.80;59.50;;;;;;5098011;27;43762;-80
2023/08/17 06:23:20;;;;;;;;;;;28.80;59.40;;;;;;5090252;27;43304;-76
2023/08/17 06:25:46;;;;;;;;;;;28.70;59.80;;;;;;5083877;27;43631;-77
2023/08/17 06:28:11;;;;;;;;;;;28.80;59.40;;;;;;5097264;27;44123;-75
2023/08/17 06:30:37;;;;;;;;;;;28.80;59.70;;;;;;5098290;27;42957;-76
2023/08/17 06:33:02;;;;;;;;;;;28.70;59.30;;;;;;5089927;27;42972;-75
2023/08/17 06:35:28;;;;;;;;;;;29.00;59.10;;;;;;5095827;27;42939;-78
2023/08/17 06:37:57;;;;;;;;;;;28.90;60.40;;;;;;5095834;27;44397;-75
2023/08/17 06:40:23;;;;;;;;;;;28.90;59.60;;;;;;5097943;27;43018;-74
2023/08/17 06:42:49;;;;;;;;;;;29.20;60.00;;;;;;5096946;27;43833;-77
2023/08/17 06:45:18;;;;;;;;;;;29.00;61.10;;;;;;5101830;27;43830;-78
2023/08/17 06:47:45;;;;;;;;;;;29.20;60.90;;;;;;5093315;27;43212;-75
2023/08/17 06:50:10;;;;;;;;;;;29.10;61.50;;;;;;5091188;27;42931;-78
2023/08/17 06:52:36;;;;;;;;;;;29.10;61.90;;;;;;5081101;27;43073;-78
2023/08/17 06:55:02;;;;;;;;;;;29.20;61.20;;;;;;5089686;27;43021;-76
2023/08/17 06:57:28;;;;;;;;;;;29.10;61.80;;;;;;5094772;27;42987;-75
2023/08/17 06:59:54;;;;;;;;;;;29.20;61.50;;;;;;5092710;27;43042;-76
2023/08/17 07:02:20;;;;;;;;;;;29.30;61.50;;;;;;5088024;27;43892;-81
2023/08/17 07:04:45;;;;;;;;;;;29.30;61.60;;;;;;5090701;27;42972;-77
2023/08/17 07:07:10;;;;;;;;;;;29.10;60.00;;;;;;5095158;27;42914;-78
2023/08/17 07:09:36;;;;;;;;;;;29.20;60.20;;;;;;5087038;27;43091;-79
2023/08/17 07:12:02;;;;;;;;;;;29.10;60.20;;;;;;5087028;27;43092;-77
2023/08/17 07:14:28;;;;;;;;;;;29.10;59.10;;;;;;5086651;27;43211;-78
2023/08/17 07:16:53;;;;;;;;;;;29.10;59.30;;;;;;5089378;27;44610;-78
2023/08/17 07:19:19;;;;;;;;;;;29.30;59.90;;;;;;5090422;27;42982;-81
2023/08/17 07:21:44;;;;;;;;;;;29.20;60.00;;;;;;5092554;27;43705;-82
2023/08/17 07:24:13;;;;;;;;;;;29.20;59.20;;;;;;5090223;27;43280;-78
2023/08/17 07:26:39;;;;;;;;;;;29.10;56.90;;;;;;5086950;27;44263;-78
2023/08/17 07:29:04;;;;;;;;;;;29.20;58.90;;;;;;5086962;27;42842;-77
2023/08/17 07:31:30;;;;;;;;;;;29.30;58.40;;;;;;5081044;27;43066;-82
2023/08/17 07:33:56;;;;;;;;;;;29.20;57.00;;;;;;5096672;27;43050;-80
2023/08/17 07:36:21;;;;;;;;;;;29.30;57.00;;;;;;5087728;27;43109;-78
2023/08/17 07:38:47;;;;;;;;;;;29.30;57.00;;;;;;5099664;27;43070;-78
2023/08/17 07:41:12;;;;;;;;;;;29.30;56.90;;;;;;5095513;27;43610;-78
2023/08/17 07:43:38;;;;;;;;;;;29.30;56.90;;;;;;5098957;27;42910;-78
2023/08/17 07:46:04;;;;;;;;;;;29.20;56.70;;;;;;5097482;27;43022;-78
2023/08/17 07:48:33;;;;;;;;;;;29.50;57.30;;;;;;5088920;27;43124;-78
2023/08/17 07:50:59;;;;;;;;;;;29.30;56.60;;;;;;5090040;27;43656;-78
2023/08/17 07:53:25;;;;;;;;;;;29.20;56.30;;;;;;5089076;27;43020;-78
2023/08/17 07:55:50;;;;;;;;;;;29.20;56.80;;;;;;5081817;27;43619;-78
2023/08/17 07:58:16;;;;;;;;;;;29.30;56.80;;;;;;5086137;27;43604;-77
2023/08/17 08:00:41;;;;;;;;;;;30.90;57.70;;;;;;5087463;27;43187;-77
2023/08/17 08:03:07;;;;;;;;;;;29.40;56.70;;;;;;5096666;27;43112;-79
2023/08/17 08:05:32;;;;;;;;;;;29.30;56.60;;;;;;5090782;27;43578;-82
2023/08/17 08:07:58;;;;;;;;;;;29.30;56.30;;;;;;5089330;27;43267;-77
2023/08/17 08:10:23;;;;;;;;;;;29.40;56.30;;;;;;5084763;27;45347;-79
2023/08/17 08:12:49;;;;;;;;;;;29.40;56.70;;;;;;5077672;27;43055;-83
2023/08/17 08:15:15;;;;;;;;;;;29.30;56.50;;;;;;5085872;27;43829;-82
2023/08/17 08:17:40;;;;;;;;;;;29.30;56.00;;;;;;5085369;27;43136;-81
2023/08/17 08:20:06;;;;;;;;;;;29.40;56.10;;;;;;5093556;27;42901;-81
2023/08/17 08:22:32;;;;;;;;;;;29.40;55.20;;;;;;5086179;27;43004;-81
2023/08/17 08:24:57;;;;;;;;;;;29.30;55.60;;;;;;5085990;27;43635;-80
2023/08/17 08:27:23;;;;;;;;;;;29.40;56.00;;;;;;5086410;27;43223;-81
2023/08/17 08:29:48;;;;;;;;;;;29.30;55.90;;;;;;5084256;27;43142;-81
2023/08/17 08:32:14;;;;;;;;;;;29.50;56.50;;;;;;5084975;27;43024;-81
2023/08/17 08:34:43;;;;;;;;;;;29.50;56.40;;;;;;5083623;27;43035;-82
2023/08/17 08:37:08;;;;;;;;;;;29.30;54.70;;;;;;5082190;27;43110;-81
2023/08/17 08:39:47;;;;;;;;;;;29.40;57.70;;;;;;5084049;27;43038;-82
2023/08/17 08:42:13;;;;;;;;;;;29.60;56.80;;;;;;5084800;27;42986;-81
2023/08/17 08:44:38;;;;;;;;;;;29.50;57.00;;;;;;5084606;27;44023;-84
2023/08/17 08:47:04;;;;;;;;;;;29.30;57.00;;;;;;5082161;27;43100;-83
2023/08/17 08:49:30;;;;;;;;;;;29.40;56.90;;;;;;5084630;27;42995;-88
2023/08/17 08:51:59;;;;;;;;;;;29.40;56.40;;;;;;5083937;27;42956;-83
2023/08/17 08:54:25;;;;;;;;;;;29.70;55.80;;;;;;5084146;27;43897;-85
2023/08/17 08:56:59;;;;;;;;;;;29.50;56.00;;;;;;5083374;27;43123;-90
2023/08/17 08:59:26;;;;;;;;;;;29.50;54.00;;;;;;5082736;27;42953;-83
2023/08/17 09:01:52;;;;;;;;;;;29.40;55.60;;;;;;5092611;27;42977;-85
2023/08/17 09:04:21;;;;;;;;;;;29.50;56.80;;;;;;5089255;27;43521;-84
2023/08/17 09:06:46;;;;;;;;;;;29.40;54.30;;;;;;5083923;27;43257;-85
2023/08/17 09:09:14;;;;;;;;;;;29.50;54.80;;;;;;5083601;27;42995;-84
2023/08/17 09:11:40;;;;;;;;;;;29.40;55.20;;;;;;5081458;27;43388;-84
2023/08/17 09:14:06;;;;;;;;;;;29.50;54.40;;;;;;5087511;27;43822;-88
2023/08/17 09:16:31;;;;;;;;;;;29.60;55.10;;;;;;5088692;27;42998;-85
2023/08/17 09:19:00;;;;;;;;;;;29.80;57.00;;;;;;5098060;27;43673;-85
2023/08/17 09:21:25;;;;;;;;;;;31.80;55.70;;;;;;5090731;27;43078;-88
2023/08/17 09:24:00;;;;;;;;;;;29.50;54.70;;;;;;5084727;27;43134;-87
2023/08/17 09:26:29;;;;;;;;;;;31.40;55.40;;;;;;5085582;27;43059;-89
2023/08/17 09:28:56;;;;;;;;;;;29.50;54.70;;;;;;5102997;27;44670;-87
2023/08/17 09:31:23;;;;;;;;;;;29.50;56.70;;;;;;5101108;27;43430;-85
2023/08/17 09:33:50;;;;;;;;;;;29.50;55.50;;;;;;5097061;27;43474;-83
2023/08/17 09:36:19;;;;;;;;;;;29.60;55.60;;;;;;5089947;27;43111;-88
2023/08/17 09:38:48;;;;;;;;;;;29.50;55.40;;;;;;5087003;27;43718;-84
2023/08/17 09:41:13;;;;;;;;;;;29.60;55.30;;;;;;5100381;27;43411;-81
2023/08/17 09:43:42;;;;;;;;;;;29.60;54.80;;;;;;5086388;27;46029;-91
2023/08/17 09:46:08;;;;;;;;;;;31.10;55.30;;;;;;5089660;27;42953;-85
2023/08/17 09:48:34;;;;;;;;;;;29.60;55.90;;;;;;5074244;27;43371;-85
2023/08/17 09:51:01;;;;;;;;;;;29.80;56.90;;;;;;5101638;27;43363;-88
2023/08/17 09:53:27;;;;;;;;;;;29.70;56.90;;;;;;5088802;27;43730;-85
2023/08/17 09:55:53;;;;;;;;;;;30.00;57.90;;;;;;5081130;27;43527;-86
2023/08/17 09:58:18;;;;;;;;;;;29.40;55.50;;;;;;5083483;27;43510;-85
2023/08/17 10:00:46;;;;;;;;;;;29.50;55.00;;;;;;5081367;27;43053;-85
2023/08/17 10:03:13;;;;;;;;;;;29.70;56.50;;;;;;5095454;27;42980;-85
2023/08/17 10:05:43;;;;;;;;;;;29.70;55.60;;;;;;5083820;27;43085;-88
2023/08/17 10:08:12;;;;;;;;;;;29.60;54.00;;;;;;5083409;27;43667;-85
2023/08/17 10:10:43;;;;;;;;;;;29.70;54.80;;;;;;5094702;27;43173;-83
2023/08/17 10:13:10;;;;;;;;;;;29.80;54.00;;;;;;5089039;27;43068;-83
2023/08/17 10:15:59;;;;;;;;;;;29.60;55.40;;;;;;5097600;27;43066;-85
2023/08/17 10:18:24;;;;;;;;;;;29.70;54.00;;;;;;5077119;27;43098;-81
2023/08/17 10:20:56;;;;;;;;;;;29.00;54.50;;;;;;5083177;27;43201;-81
2023/08/17 10:23:22;;;;;;;;;;;29.70;56.10;;;;;;5089974;27;43613;-82
2023/08/17 10:25:49;;;;;;;;;;;29.90;56.30;;;;;;5095317;27;43260;-84
2023/08/17 10:28:15;;;;;;;;;;;29.50;55.50;;;;;;5095979;27;44146;-82
2023/08/17 10:30:41;;;;;;;;;;;29.70;56.00;;;;;;5099869;27;43260;-83
2023/08/17 10:33:07;;;;;;;;;;;30.00;56.00;;;;;;5090335;27;42960;-81
2023/08/17 10:35:33;;;;;;;;;;;29.70;55.90;;;;;;5100363;27;43006;-83
2023/08/17 10:37:59;;;;;;;;;;;29.70;56.40;;;;;;5097267;27;43558;-82
2023/08/17 10:40:28;;;;;;;;;;;30.40;57.30;;;;;;5089114;27;43180;-82
2023/08/17 10:42:55;;;;;;;;;;;29.70;54.30;;;;;;5092092;27;43241;-83
2023/08/17 10:45:21;;;;;;;;;;;29.70;56.90;;;;;;5092549;27;42863;-80
2023/08/17 10:47:47;;;;;;;;;;;29.70;57.10;;;;;;5092036;27;43640;-81
2023/08/17 10:50:21;;;;;;;;;;;29.20;55.70;;;;;;5090315;27;43028;-85
2023/08/17 10:52:48;;;;;;;;;;;29.60;54.20;;;;;;5103015;27;43039;-81
2023/08/17 10:55:14;;;;;;;;;;;29.60;56.10;;;;;;5092592;27;43078;-81
2023/08/17 10:57:40;;;;;;;;;;;29.70;57.40;;;;;;5089156;27;43064;-83
2023/08/17 11:00:31;;;;;;;;;;;29.60;56.00;;;;;;5085141;27;43158;-86
2023/08/17 11:03:01;;;;;;;;;;;29.70;54.30;;;;;;5090183;27;43261;-78
2023/08/17 11:05:42;;;;;;;;;;;29.70;56.10;;;;;;5092691;27;43005;-78
2023/08/17 11:08:19;;;;;;;;;;;31.90;55.70;;;;;;5068092;27;43680;-78
2023/08/17 11:10:48;;;;;;;;;;;29.70;55.80;;;;;;5085861;27;43531;-78
2023/08/17 11:13:13;;;;;;;;;;;29.80;56.30;;;;;;5103465;27;42964;-78
2023/08/17 11:15:39;;;;;;;;;;;29.70;56.60;;;;;;5094794;27;42961;-78
2023/08/17 11:18:09;;;;;;;;;;;29.70;56.40;;;;;;5087932;27;42982;-77
2023/08/17 11:20:35;;;;;;;;;;;29.80;54.50;;;;;;5074720;27;43111;-79
2023/08/17 11:23:01;;;;;;;;;;;29.90;56.20;;;;;;5088615;27;44280;-82
2023/08/17 11:25:27;;;;;;;;;;;30.10;57.10;;;;;;5083137;27;43024;-78
2023/08/17 11:27:53;;;;;;;;;;;29.80;56.90;;;;;;5104869;27;44481;-81
2023/08/17 11:30:20;;;;;;;;;;;29.50;56.70;;;;;;5094352;27;43023;-82
2023/08/17 11:32:45;;;;;;;;;;;29.80;56.80;;;;;;5084845;27;43754;-80
2023/08/17 11:35:11;;;;;;;;;;;29.90;57.20;;;;;;5089525;27;42879;-79
2023/08/17 11:37:37;;;;;;;;;;;29.90;57.10;;;;;;5099762;27;43889;-77
2023/08/17 11:40:04;;;;;;;;;;;29.90;57.10;;;;;;5085292;27;42976;-81
2023/08/17 11:42:29;;;;;;;;;;;30.10;57.10;;;;;;5085007;27;43057;-80
2023/08/17 11:44:55;;;;;;;;;;;29.80;57.30;;;;;;5086239;27;43015;-80
2023/08/17 11:47:21;;;;;;;;;;;29.80;57.40;;;;;;5084210;27;42966;-79
2023/08/17 11:49:49;;;;;;;;;;;30.00;57.50;;;;;;5091569;27;43019;-78
2023/08/17 11:52:15;;;;;;;;;;;30.00;55.60;;;;;;5092625;27;43347;-81
2023/08/17 11:54:41;;;;;;;;;;;30.00;57.80;;;;;;5090096;27;43246;-78
2023/08/17 11:57:07;;;;;;;;;;;30.00;57.70;;;;;;5097152;27;43494;-79
2023/08/17 11:59:33;;;;;;;;;;;29.90;57.80;;;;;;5103719;27;43106;-80
2023/08/17 12:01:59;;;;;;;;;;;30.00;57.70;;;;;;5084212;27;43125;-79
2023/08/17 12:04:25;;;;;;;;;;;29.90;57.80;;;;;;5087951;27;43371;-81
2023/08/17 12:06:50;;;;;;;;;;;30.00;57.30;;;;;;5086945;27;44461;-78
2023/08/17 12:09:17;;;;;;;;;;;30.00;56.00;;;;;;5083830;27;43320;-79
2023/08/17 12:11:44;;;;;;;;;;;30.20;56.60;;;;;;5082733;27;43588;-79
2023/08/17 12:14:13;;;;;;;;;;;30.20;57.10;;;;;;5090449;27;42948;-82
2023/08/17 12:16:45;;;;;;;;;;;30.10;57.30;;;;;;5093617;27;43012;-80
2023/08/17 12:19:10;;;;;;;;;;;29.90;56.00;;;;;;5095436;27;43160;-78
2023/08/17 12:21:36;;;;;;;;;;;30.00;56.70;;;;;;5092400;27;43117;-79
2023/08/17 12:24:04;;;;;;;;;;;30.00;58.30;;;;;;5086181;27;43022;-77
2023/08/17 12:26:29;;;;;;;;;;;30.30;57.80;;;;;;5085172;27;44027;-78
2023/08/17 12:28:55;;;;;;;;;;;30.00;57.60;;;;;;5086237;27;43144;-80
2023/08/17 12:31:22;;;;;;;;;;;30.40;57.60;;;;;;5083679;27;44012;-78
2023/08/17 12:33:48;;;;;;;;;;;29.90;57.10;;;;;;5087880;27;43120;-78
2023/08/17 12:36:13;;;;;;;;;;;30.00;58.60;;;;;;5082524;27;44260;-77
2023/08/17 12:38:44;;;;;;;;;;;31.20;59.40;;;;;;5084190;27;43140;-78
2023/08/17 12:41:10;;;;;;;;;;;29.90;57.30;;;;;;5083477;27;43517;-77
2023/08/17 12:43:37;;;;;;;;;;;29.80;57.60;;;;;;5084641;27;43258;-78
2023/08/17 12:46:02;;;;;;;;;;;29.70;56.40;;;;;;5080077;27;44186;-80
2023/08/17 12:48:28;;;;;;;;;;;29.90;58.20;;;;;;5083814;27;43155;-78
2023/08/17 12:50:54;;;;;;;;;;;29.80;57.40;;;;;;5085671;27;43085;-79
2023/08/17 12:53:19;;;;;;;;;;;29.90;56.30;;;;;;5092842;27;42964;-77
2023/08/17 12:55:45;;;;;;;;;;;29.80;57.10;;;;;;5094099;27;43795;-78
2023/08/17 12:58:10;;;;;;;;;;;29.80;56.40;;;;;;5092020;27;44114;-80
2023/08/17 13:00:36;;;;;;;;;;;29.90;56.30;;;;;;5089110;27;43422;-78
2023/08/17 13:03:01;;;;;;;;;;;29.90;56.40;;;;;;5083404;27;43069;-78
2023/08/17 13:05:27;;;;;;;;;;;30.00;58.40;;;;;;5081262;27;45474;-79
2023/08/17 13:07:52;;;;;;;;;;;30.00;57.50;;;;;;5081594;27;43093;-79
2023/08/17 13:10:18;;;;;;;;;;;29.90;57.00;;;;;;5084435;27;43807;-78
2023/08/17 13:12:44;;;;;;;;;;;30.30;58.10;;;;;;5084505;27;42964;-79
2023/08/17 13:15:09;;;;;;;;;;;30.00;58.30;;;;;;5088708;27;43194;-78
2023/08/17 13:17:35;;;;;;;;;;;30.00;58.30;;;;;;5082988;27;43125;-78
2023/08/17 13:20:01;;;;;;;;;;;29.90;57.40;;;;;;5083905;27;43297;-78
2023/08/17 13:22:26;;;;;;;;;;;29.90;56.80;;;;;;5087568;27;43388;-77
2023/08/17 13:24:52;;;;;;;;;;;30.00;57.20;;;;;;5095903;27;43923;-78
2023/08/17 13:27:17;;;;;;;;;;;29.90;57.40;;;;;;5094993;27;42945;-79
2023/08/17 13:29:43;;;;;;;;;;;30.20;57.90;;;;;;5085108;27;44252;-78
2023/08/17 13:32:08;;;;;;;;;;;29.90;58.10;;;;;;5096227;27;43163;-79
2023/08/17 13:34:34;;;;;;;;;;;29.90;58.20;;;;;;5090258;27;43954;-78
2023/08/17 13:36:59;;;;;;;;;;;29.40;58.10;;;;;;5088017;27;44125;-79
2023/08/17 13:39:32;;;;;;;;;;;30.00;58.50;;;;;;5091288;27;43087;-74
2023/08/17 13:41:58;;;;;;;;;;;30.00;63.80;;;;;;5088850;27;43029;-85
2023/08/17 13:44:23;;;;;;;;;;;29.90;60.90;;;;;;5090195;27;43813;-79
2023/08/17 13:46:49;;;;;;;;;;;29.90;58.90;;;;;;5081163;27;43026;-79
2023/08/17 13:49:14;;;;;;;;;;;30.10;58.20;;;;;;5091008;27;43470;-81
2023/08/17 13:51:40;;;;;;;;;;;29.90;55.50;;;;;;5088800;27;42939;-78
2023/08/17 13:54:05;;;;;;;;;;;29.90;55.60;;;;;;5092537;27;43913;-79
2023/08/17 13:56:31;;;;;;;;;;;28.60;54.60;;;;;;5083184;27;43672;-79
2023/08/17 13:58:57;;;;;;;;;;;29.90;55.10;;;;;;5088917;27;43188;-79
2023/08/17 14:01:22;;;;;;;;;;;30.10;56.90;;;;;;5086146;27;42933;-79
2023/08/17 14:03:48;;;;;;;;;;;30.10;56.70;;;;;;5090349;27;43733;-82
2023/08/17 14:06:13;;;;;;;;;;;30.40;55.50;;;;;;5080006;27;43605;-80
2023/08/17 14:08:39;;;;;;;;;;;29.90;55.20;;;;;;5082296;27;43991;-78
2023/08/17 14:11:06;;;;;;;;;;;29.80;55.40;;;;;;5082574;27;43045;-78